»·PEaware :: N85AA S70-KOMK

N85AA :: S70-KOMK

FLIGHT INFORMATION

Flight Status: Arrived
Operator: Privately registered:
United States
More flights under this callsign
Pilot: Dan A. (12711)
Aircraft: SOCATA TBM-900
(TBM9)
More flights by this aircraft type
Origin: S70 Othello Mun
United States
Destination: KOMK Omak
United States
More flights between these airports :: More routes between these airports
Route: +MWH V497 EPH
File this flight plan on PilotEdge
Remarks:
Altitude:
(Current/Filed)
16,000ft
Speed:
(Current/Filed)
250kts
Departed: 16-Jul-19 06:02 PM
Arrived: 16-Jul-19 06:35 PM
Distance/Time
Traveled:
102nm/0:33
Distance/Time
To Go:
Arrived

Flight Plot

Page will automatically refresh every two minutes.

Flight plan parsing failed; only flown route is shown


Map Options




Map Legend


Flown Route
Filed Route
Departure Airport
Arrival Airport
Navaid (VOR, NDB)
Fix

Horizontal Profiles

Position Reports

Time Latitude Longitude Heading Altitude Ground
Speed
16-Jul-19 17:44 46.795746 -119.077080 202 1142ft 0kts
16-Jul-19 17:45 46.795746 -119.077080 202 1142ft 0kts
16-Jul-19 17:46 46.795746 -119.077080 202 1142ft 0kts
16-Jul-19 17:47 46.795746 -119.077080 202 1142ft 0kts
16-Jul-19 17:48 46.795746 -119.077080 202 1142ft 0kts
16-Jul-19 17:49 46.795746 -119.077080 202 1142ft 0kts
16-Jul-19 17:50 46.795746 -119.077080 202 1142ft 0kts
16-Jul-19 17:51 46.795746 -119.077080 202 1142ft 0kts
16-Jul-19 17:52 46.795746 -119.077080 202 1142ft 0kts
16-Jul-19 17:53 46.795746 -119.077080 202 1142ft 0kts
16-Jul-19 17:54 46.795746 -119.077080 202 1142ft 0kts
16-Jul-19 17:55 46.795746 -119.077080 202 1142ft 0kts
16-Jul-19 17:56 46.795746 -119.077080 202 1142ft 0kts
16-Jul-19 17:57 46.795451 -119.075549 93 1142ft 2kts
16-Jul-19 17:58 46.795235 -119.072161 157 1142ft 1kts
16-Jul-19 17:59 46.794730 -119.072149 187 1142ft 0kts
16-Jul-19 18:00 46.794062 -119.072458 266 1142ft 10kts
16-Jul-19 18:01 46.795878 -119.106990 263 1890ft 101kts
16-Jul-19 18:02 46.822303 -119.125728 7 2747ft 143kts
16-Jul-19 18:03 46.860969 -119.120846 347 4976ft 136kts
16-Jul-19 18:04 46.896915 -119.138215 338 6968ft 139kts
16-Jul-19 18:05 46.933157 -119.158601 336 9134ft 142kts
16-Jul-19 18:06 46.970570 -119.179812 335 11030ft 148kts
16-Jul-19 18:07 47.009515 -119.201926 335 12781ft 153kts
16-Jul-19 18:08 47.049428 -119.224611 334 14588ft 155kts
16-Jul-19 18:09 47.090044 -119.247777 334 16029ft 172kts
16-Jul-19 18:10 47.143090 -119.278033 335 16027ft 232kts
16-Jul-19 18:11 47.206469 -119.314289 335 16010ft 252kts
16-Jul-19 18:12 47.271688 -119.355746 333 16006ft 257kts
16-Jul-19 18:13 47.337470 -119.397973 333 16004ft 258kts
16-Jul-19 18:14 47.406315 -119.426542 353 16011ft 264kts
16-Jul-19 18:15 47.479841 -119.432659 353 16003ft 264kts
16-Jul-19 18:16 47.553361 -119.438920 353 16003ft 264kts
16-Jul-19 18:17 47.626843 -119.445203 353 16003ft 264kts
16-Jul-19 18:18 47.698287 -119.451316 353 15995ft 248kts
16-Jul-19 18:19 47.767106 -119.457242 353 16004ft 249kts
16-Jul-19 18:20 47.836547 -119.463221 353 16004ft 250kts
16-Jul-19 18:21 47.905939 -119.469200 353 15991ft 245kts
16-Jul-19 18:22 47.972938 -119.475011 352 15987ft 238kts
16-Jul-19 18:23 48.038657 -119.480714 352 15993ft 232kts
16-Jul-19 18:24 48.101037 -119.486168 353 15135ft 230kts
16-Jul-19 18:25 48.163339 -119.491612 354 12685ft 218kts
16-Jul-19 18:26 48.221456 -119.496675 354 10984ft 193kts
16-Jul-19 18:27 48.273285 -119.494174 6 10658ft 179kts
16-Jul-19 18:28 48.312013 -119.511750 322 9017ft 151kts
16-Jul-19 18:29 48.342704 -119.548917 17 5642ft 153kts
16-Jul-19 18:30 48.382714 -119.537616 10 2831ft 121kts
16-Jul-19 18:31 48.409865 -119.529314 20 2446ft 101kts
16-Jul-19 18:32 48.438492 -119.523532 4 2046ft 104kts
16-Jul-19 18:33 48.466475 -119.517424 18 1336ft 80kts
16-Jul-19 18:34 48.471870 -119.520352 307 1320ft 0kts
16-Jul-19 18:35 48.471870 -119.520352 307 1320ft 0kts
16-Jul-19 18:36 48.461827 -119.516888 270 1303ft 0kts
16-Jul-19 18:37 48.461827 -119.516886 270 1303ft 0kts
16-Jul-19 18:38 48.461827 -119.516886 270 1303ft 0kts
16-Jul-19 18:39 48.461827 -119.516886 270 1303ft 0kts
16-Jul-19 18:40 48.461827 -119.516886 270 1303ft 0kts
16-Jul-19 18:41 48.461827 -119.516886 270 1303ft 0kts

Navigation Log

Ident Type
Flight plan parsing failed, navigation log unavailable